Time;durP1;ratioP1;P1;durP2;ratioP2;P2;SDS_P1;SDS_P2;PMS_P1;PMS_P2;Temp;Humidity;BMP_temperature;BMP_pressure;BME280_temperature;BME280_humidity;BME280_pressure;Samples;Min_cycle;Max_cycle;Signal;HPM_P1;HPM_P2
2022/09/08 00:00:50;;;;;;;;;;;;;;;;;;3045796;19;19931;-63
2022/09/08 00:01:50;;;;;;;;;;;;;;;;;;3047314;19;19914;-63
2022/09/08 00:02:50;;;;;;;;;;;;;;;;;;3046819;19;20722;-62
2022/09/08 00:03:51;;;;;;;;;;;;;;;;;;3046760;19;19915;-63
2022/09/08 00:04:51;;;;;;;;;;;;;;;;;;3048629;19;19950;-64
2022/09/08 00:05:51;;;;;;;;;;;;;;;;;;3049602;19;19919;-63
2022/09/08 00:06:53;;;;;;;;;;;;;;;;;;3048150;19;19915;-64
2022/09/08 00:07:53;;;;;;;;;;;;;;;;;;3048090;19;19923;-63
2022/09/08 00:08:55;;;;;;;;;;;;;;;;;;3048392;19;19984;-62
2022/09/08 00:09:55;;;;;;;;;;;;;;;;;;3049027;19;20510;-64
2022/09/08 00:10:55;;;;;;;;;;;;;;;;;;3048146;19;20742;-64
2022/09/08 00:11:56;;;;;;;;;;;;;;;;;;3047100;19;19926;-64
2022/09/08 00:12:56;;;;;;;;;;;;;;;;;;3049069;19;20340;-64
2022/09/08 00:13:56;;;;;;;;;;;;;;;;;;3047402;19;20476;-64
2022/09/08 00:14:56;;;;;;;;;;;;;;;;;;3047909;19;19919;-64
2022/09/08 00:15:57;;;;;;;;;;;;;;;;;;3047709;19;19926;-64
2022/09/08 00:16:57;;;;;;;;;;;;;;;;;;3044450;19;19923;-64
2022/09/08 00:17:57;;;;;;;;;;;;;;;;;;3048660;19;19941;-63
2022/09/08 00:18:57;;;;;;;;;;;;;;;;;;3047527;19;20031;-63
2022/09/08 00:19:57;;;;;;;;;;;;;;;;;;3048643;19;19930;-65
2022/09/08 00:20:58;;;;;;;;;;;;;;;;;;3046711;19;19922;-64
2022/09/08 00:21:58;;;;;;;;;;;;;;;;;;3047374;19;19918;-64
2022/09/08 00:22:58;;;;;;;;;;;;;;;;;;3049541;19;20508;-64
2022/09/08 00:24:01;;;;;;;;;;;;;;;;;;3046250;19;19937;-63
2022/09/08 00:25:01;;;;;;;;;;;;;;;;;;3046510;19;20347;-64
2022/09/08 00:26:02;;;;;;;;;;;;;;;;;;3048256;19;19918;-63
2022/09/08 00:27:02;;;;;;;;;;;;;;;;;;3046216;19;19930;-64
2022/09/08 00:28:02;;;;;;;;;;;;;;;;;;3048290;19;20461;-64
2022/09/08 00:29:02;;;;;;;;;;;;;;;;;;3047988;19;19930;-63
2022/09/08 00:30:02;;;;;;;;;;;;;;;;;;3049063;19;19919;-63
2022/09/08 00:31:04;;;;;;;;;;;;;;;;;;3046856;19;19927;-63
2022/09/08 00:32:04;;;;;;;;;;;;;;;;;;3046780;19;19931;-63
2022/09/08 00:33:04;;;;;;;;;;;;;;;;;;3046546;19;20476;-64
2022/09/08 00:34:04;;;;;;;;;;;;;;;;;;3046381;19;19930;-63
2022/09/08 00:35:08;;;;;;;;;;;;;;;;;;3046707;19;19922;-63
2022/09/08 00:36:10;;;;;;;;;;;;;;;;;;3047230;19;19915;-63
2022/09/08 00:37:11;;;;;;;;;;;;;;;;;;3048700;19;19961;-63
2022/09/08 00:38:11;;;;;;;;;;;;;;;;;;3048432;19;19923;-62
2022/09/08 00:39:11;;;;;;;;;;;;;;;;;;3047379;19;19911;-63
2022/09/08 00:40:11;;;;;;;;;;;;;;;;;;3048974;19;19930;-62
2022/09/08 00:41:12;;;;;;;;;;;;;;;;;;3047118;19;19923;-63
2022/09/08 00:42:12;;;;;;;;;;;;;;;;;;3047554;19;19915;-63
2022/09/08 00:43:12;;;;;;;;;;;;;;;;;;3045322;19;19939;-64
2022/09/08 00:44:12;;;;;;;;;;;;;;;;;;3047040;19;19923;-64
2022/09/08 00:45:12;;;;;;;;;;;;;;;;;;3048143;19;19960;-62
2022/09/08 00:46:14;;;;;;;;;;;;;;;;;;3049566;19;19994;-63
2022/09/08 00:47:14;;;;;;;;;;;;;;;;;;3046794;19;19930;-64
2022/09/08 00:48:15;;;;;;;;;;;;;;;;;;3049766;19;19940;-64
2022/09/08 00:49:16;;;;;;;;;;;;;;;;;;3045842;19;19915;-64
2022/09/08 00:50:17;;;;;;;;;;;;;;;;;;3046980;19;19922;-63
2022/09/08 00:51:17;;;;;;;;;;;;;;;;;;3046928;19;20340;-63
2022/09/08 00:52:18;;;;;;;;;;;;;;;;;;3046214;19;19929;-64
2022/09/08 00:53:18;;;;;;;;;;;;;;;;;;3047493;19;19927;-63
2022/09/08 00:54:18;;;;;;;;;;;;;;;;;;3047352;19;19923;-63
2022/09/08 00:55:19;;;;;;;;;;;;;;;;;;3043201;19;19922;-62
2022/09/08 00:56:20;;;;;;;;;;;;;;;;;;3049264;19;19998;-64
2022/09/08 00:57:21;;;;;;;;;;;;;;;;;;3045602;19;19929;-64
2022/09/08 00:58:21;;;;;;;;;;;;;;;;;;3043080;19;19926;-64
2022/09/08 00:59:22;;;;;;;;;;;;;;;;;;3046414;19;19938;-64
2022/09/08 01:00:22;;;;;;;;;;;;;;;;;;3048133;19;19919;-63
2022/09/08 01:01:22;;;;;;;;;;;;;;;;;;3045585;19;19914;-63
2022/09/08 01:02:24;;;;;;;;;;;;;;;;;;3046138;19;20463;-64
2022/09/08 01:03:24;;;;;;;;;;;;;;;;;;3046730;19;19950;-63
2022/09/08 01:04:24;;;;;;;;;;;;;;;;;;3046840;19;19946;-64
2022/09/08 01:05:24;;;;;;;;;;;;;;;;;;3046210;19;19923;-63
2022/09/08 01:12:43;;;;;;;;;;;;;;;;;;3048361;19;19915;-63
2022/09/08 01:13:02;;;;;;;;;;;;;;;;;;3046765;19;19918;-64
2022/09/08 01:14:04;;;;;;;;;;;;;;;;;;3046766;19;20465;-64
2022/09/08 01:15:05;;;;;;;;;;;;;;;;;;3047473;19;19923;-63
2022/09/08 01:16:06;;;;;;;;;;;;;;;;;;3046787;19;20927;-64
2022/09/08 01:17:06;;;;;;;;;;;;;;;;;;3048860;19;19925;-64
2022/09/08 01:18:06;;;;;;;;;;;;;;;;;;3046303;19;19922;-64
2022/09/08 01:19:06;;;;;;;;;;;;;;;;;;3047409;19;20521;-64
2022/09/08 01:20:09;;;;;;;;;;;;;;;;;;3048149;19;19930;-64
2022/09/08 01:21:09;;;;;;;;;;;;;;;;;;3045397;19;19964;-63
2022/09/08 01:22:09;;;;;;;;;;;;;;;;;;3047619;19;19953;-63
2022/09/08 01:23:10;;;;;;;;;;;;;;;;;;3045809;19;19943;-64
2022/09/08 01:24:10;;;;;;;;;;;;;;;;;;3047484;19;20506;-64
2022/09/08 01:25:10;;;;;;;;;;;;;;;;;;3047544;19;19915;-64
2022/09/08 01:26:10;;;;;;;;;;;;;;;;;;3045658;19;19918;-64
2022/09/08 01:27:11;;;;;;;;;;;;;;;;;;3047423;19;19926;-64
2022/09/08 01:28:11;;;;;;;;;;;;;;;;;;3047324;19;19947;-64
2022/09/08 01:29:11;;;;;;;;;;;;;;;;;;3047032;19;20335;-62
2022/09/08 01:30:11;;;;;;;;;;;;;;;;;;3047766;19;19930;-63
2022/09/08 01:31:11;;;;;;;;;;;;;;;;;;3045872;19;20640;-63
2022/09/08 01:32:12;;;;;;;;;;;;;;;;;;3046930;19;20669;-63
2022/09/08 01:33:12;;;;;;;;;;;;;;;;;;3046911;19;19942;-63
2022/09/08 01:34:12;;;;;;;;;;;;;;;;;;3046673;19;19958;-63
2022/09/08 01:35:12;;;;;;;;;;;;;;;;;;3048681;19;20339;-64
2022/09/08 01:36:13;;;;;;;;;;;;;;;;;;3045467;19;20355;-62
2022/09/08 01:37:13;;;;;;;;;;;;;;;;;;3045953;19;19915;-63
2022/09/08 01:38:13;;;;;;;;;;;;;;;;;;3048409;19;19930;-64
2022/09/08 01:39:13;;;;;;;;;;;;;;;;;;3041676;19;19915;-63
2022/09/08 01:40:13;;;;;;;;;;;;;;;;;;3048796;19;19925;-63
2022/09/08 01:41:14;;;;;;;;;;;;;;;;;;3045376;19;19946;-62
2022/09/08 01:42:14;;;;;;;;;;;;;;;;;;3044183;19;19928;-63
2022/09/08 01:43:14;;;;;;;;;;;;;;;;;;3047976;19;20379;-63
2022/09/08 01:44:14;;;;;;;;;;;;;;;;;;3044199;19;20290;-63
2022/09/08 01:45:14;;;;;;;;;;;;;;;;;;3046976;19;19948;-62
2022/09/08 01:46:15;;;;;;;;;;;;;;;;;;3047636;19;20505;-62
2022/09/08 01:47:15;;;;;;;;;;;;;;;;;;3046997;19;19923;-62
2022/09/08 01:48:15;;;;;;;;;;;;;;;;;;3047891;19;20520;-61
2022/09/08 01:49:15;;;;;;;;;;;;;;;;;;3046910;19;19943;-63
2022/09/08 01:50:15;;;;;;;;;;;;;;;;;;3044991;19;21272;-63
2022/09/08 01:51:15;;;;;;;;;;;;;;;;;;3047520;19;19981;-63
2022/09/08 01:52:15;;;;;;;;;;;;;;;;;;3045840;19;19922;-62
2022/09/08 01:53:16;;;;;;;;;;;;;;;;;;3044141;19;20363;-63
2022/09/08 01:54:16;;;;;;;;;;;;;;;;;;3042687;19;19927;-62
2022/09/08 01:55:16;;;;;;;;;;;;;;;;;;3046205;19;19910;-62
2022/09/08 01:56:16;;;;;;;;;;;;;;;;;;3048427;19;19923;-63
2022/09/08 01:57:16;;;;;;;;;;;;;;;;;;3041985;19;19926;-63
2022/09/08 01:58:16;;;;;;;;;;;;;;;;;;3046117;19;20474;-63
2022/09/08 01:59:16;;;;;;;;;;;;;;;;;;3047090;19;19918;-63
2022/09/08 02:00:17;;;;;;;;;;;;;;;;;;3048589;19;19946;-62
2022/09/08 02:01:17;;;;;;;;;;;;;;;;;;3046154;19;19930;-62
2022/09/08 02:02:17;;;;;;;;;;;;;;;;;;3047153;19;19919;-61
2022/09/08 02:03:17;;;;;;;;;;;;;;;;;;3047116;19;19915;-62
2022/09/08 02:04:17;;;;;;;;;;;;;;;;;;3043515;19;19940;-63
2022/09/08 02:05:17;;;;;;;;;;;;;;;;;;3046333;19;19922;-62
2022/09/08 02:06:17;;;;;;;;;;;;;;;;;;3045511;19;19922;-63
2022/09/08 02:07:18;;;;;;;;;;;;;;;;;;3050801;19;20872;-63
2022/09/08 02:08:18;;;;;;;;;;;;;;;;;;3047217;19;19926;-63
2022/09/08 02:09:18;;;;;;;;;;;;;;;;;;3050577;19;19923;-63
2022/09/08 02:10:18;;;;;;;;;;;;;;;;;;3047914;19;20323;-62
2022/09/08 02:11:18;;;;;;;;;;;;;;;;;;3051130;19;20347;-63
2022/09/08 02:12:19;;;;;;;;;;;;;;;;;;3050688;19;19927;-63
2022/09/08 02:13:19;;;;;;;;;;;;;;;;;;3046601;19;19914;-61
2022/09/08 02:14:19;;;;;;;;;;;;;;;;;;3048796;19;19914;-64
2022/09/08 02:15:19;;;;;;;;;;;;;;;;;;3051478;19;19967;-63
2022/09/08 02:16:19;;;;;;;;;;;;;;;;;;3050172;19;19918;-63
2022/09/08 02:17:20;;;;;;;;;;;;;;;;;;3049948;19;20763;-62
2022/09/08 02:18:20;;;;;;;;;;;;;;;;;;3049196;19;19918;-63
2022/09/08 02:19:20;;;;;;;;;;;;;;;;;;3047461;19;19978;-64
2022/09/08 02:20:21;;;;;;;;;;;;;;;;;;3050926;19;19921;-62
2022/09/08 02:21:21;;;;;;;;;;;;;;;;;;3046636;19;19923;-62
2022/09/08 02:22:25;;;;;;;;;;;;;;;;;;3051532;19;20513;-62
2022/09/08 02:23:26;;;;;;;;;;;;;;;;;;3047832;19;19923;-62
2022/09/08 02:24:26;;;;;;;;;;;;;;;;;;3047174;19;19927;-63
2022/09/08 02:25:26;;;;;;;;;;;;;;;;;;3050078;19;19947;-63
2022/09/08 02:26:28;;;;;;;;;;;;;;;;;;3048908;19;19930;-63
2022/09/08 02:27:28;;;;;;;;;;;;;;;;;;3047536;19;20045;-63
2022/09/08 02:28:28;;;;;;;;;;;;;;;;;;3049607;19;19922;-62
2022/09/08 02:29:32;;;;;;;;;;;;;;;;;;3045752;19;19938;-62
2022/09/08 02:30:32;;;;;;;;;;;;;;;;;;3048940;19;19948;-63
2022/09/08 02:31:33;;;;;;;;;;;;;;;;;;3048602;19;19964;-62
2022/09/08 02:32:33;;;;;;;;;;;;;;;;;;3044669;19;19915;-62
2022/09/08 02:33:33;;;;;;;;;;;;;;;;;;3048886;19;20510;-64
2022/09/08 02:34:34;;;;;;;;;;;;;;;;;;3049201;19;19923;-63
2022/09/08 02:35:34;;;;;;;;;;;;;;;;;;3048327;19;19923;-63
2022/09/08 02:36:34;;;;;;;;;;;;;;;;;;3048297;19;20593;-63
2022/09/08 02:37:34;;;;;;;;;;;;;;;;;;3050436;19;19919;-63
2022/09/08 02:38:34;;;;;;;;;;;;;;;;;;3050005;19;19915;-63
2022/09/08 02:39:34;;;;;;;;;;;;;;;;;;3049968;19;20363;-63
2022/09/08 02:40:34;;;;;;;;;;;;;;;;;;3050611;19;19923;-63
2022/09/08 02:41:35;;;;;;;;;;;;;;;;;;3047149;19;19929;-62
2022/09/08 02:42:35;;;;;;;;;;;;;;;;;;3051528;19;19926;-62
2022/09/08 02:43:36;;;;;;;;;;;;;;;;;;3049953;19;19927;-63
2022/09/08 02:44:36;;;;;;;;;;;;;;;;;;3047863;19;19931;-63
2022/09/08 02:45:36;;;;;;;;;;;;;;;;;;3049569;19;20563;-63
2022/09/08 02:46:36;;;;;;;;;;;;;;;;;;3050156;19;19943;-63
2022/09/08 02:47:37;;;;;;;;;;;;;;;;;;3050770;19;19934;-63
2022/09/08 02:48:37;;;;;;;;;;;;;;;;;;3049380;19;19927;-62
2022/09/08 02:49:37;;;;;;;;;;;;;;;;;;3048416;19;19954;-63
2022/09/08 02:50:38;;;;;;;;;;;;;;;;;;3051525;19;20237;-63
2022/09/08 02:51:38;;;;;;;;;;;;;;;;;;3050528;19;19940;-63
2022/09/08 02:52:38;;;;;;;;;;;;;;;;;;3048399;19;19923;-63
2022/09/08 02:53:38;;;;;;;;;;;;;;;;;;3050473;19;20288;-62
2022/09/08 02:54:38;;;;;;;;;;;;;;;;;;3047675;19;19934;-64
2022/09/08 02:55:39;;;;;;;;;;;;;;;;;;3050663;19;20021;-62
2022/09/08 02:56:39;;;;;;;;;;;;;;;;;;3048479;19;19929;-62
2022/09/08 02:57:39;;;;;;;;;;;;;;;;;;3049383;19;19934;-63
2022/09/08 02:58:39;;;;;;;;;;;;;;;;;;3049090;19;20307;-61
2022/09/08 02:59:40;;;;;;;;;;;;;;;;;;3048435;19;19918;-63
2022/09/08 03:00:40;;;;;;;;;;;;;;;;;;3049936;19;19923;-63
2022/09/08 03:01:40;;;;;;;;;;;;;;;;;;3049744;19;19915;-63
2022/09/08 03:02:41;;;;;;;;;;;;;;;;;;3050103;19;19925;-63
2022/09/08 03:03:41;;;;;;;;;;;;;;;;;;3050307;19;20279;-63
2022/09/08 03:04:41;;;;;;;;;;;;;;;;;;3051193;19;19919;-63
2022/09/08 03:05:41;;;;;;;;;;;;;;;;;;3046792;19;19945;-63
2022/09/08 03:06:43;;;;;;;;;;;;;;;;;;3050215;19;19919;-64
2022/09/08 03:07:43;;;;;;;;;;;;;;;;;;3050534;19;20042;-63
2022/09/08 03:08:43;;;;;;;;;;;;;;;;;;3048937;19;20469;-62
2022/09/08 03:09:44;;;;;;;;;;;;;;;;;;3049536;19;19936;-63
2022/09/08 03:10:44;;;;;;;;;;;;;;;;;;3050946;19;19922;-62
2022/09/08 03:11:44;;;;;;;;;;;;;;;;;;3049552;19;19922;-62
2022/09/08 03:12:44;;;;;;;;;;;;;;;;;;3048754;19;19923;-63
2022/09/08 03:13:44;;;;;;;;;;;;;;;;;;3050961;19;19939;-63
2022/09/08 03:14:44;;;;;;;;;;;;;;;;;;3049615;19;19923;-63
2022/09/08 03:15:45;;;;;;;;;;;;;;;;;;3049625;19;19925;-63
2022/09/08 03:16:46;;;;;;;;;;;;;;;;;;3050075;19;19919;-62
2022/09/08 03:17:46;;;;;;;;;;;;;;;;;;3047149;19;20104;-63
2022/09/08 03:18:46;;;;;;;;;;;;;;;;;;3048394;19;19926;-64
2022/09/08 03:19:46;;;;;;;;;;;;;;;;;;3047728;19;19926;-62
2022/09/08 03:20:47;;;;;;;;;;;;;;;;;;3049831;19;19930;-63
2022/09/08 03:21:47;;;;;;;;;;;;;;;;;;3049552;19;19926;-62
2022/09/08 03:22:47;;;;;;;;;;;;;;;;;;3049337;19;19915;-63
2022/09/08 03:23:47;;;;;;;;;;;;;;;;;;3050774;19;19939;-63
2022/09/08 03:24:48;;;;;;;;;;;;;;;;;;3048821;19;20492;-63
2022/09/08 03:25:48;;;;;;;;;;;;;;;;;;3049213;19;20351;-62
2022/09/08 03:26:48;;;;;;;;;;;;;;;;;;3049737;19;20024;-62
2022/09/08 03:27:49;;;;;;;;;;;;;;;;;;3049772;19;19942;-62
2022/09/08 03:28:49;;;;;;;;;;;;;;;;;;3048846;19;19978;-63
2022/09/08 03:29:49;;;;;;;;;;;;;;;;;;3049025;19;19936;-63
2022/09/08 03:30:49;;;;;;;;;;;;;;;;;;3046395;19;19919;-62
2022/09/08 03:31:50;;;;;;;;;;;;;;;;;;3049698;19;19933;-63
2022/09/08 03:32:50;;;;;;;;;;;;;;;;;;3047945;19;19920;-63
2022/09/08 03:33:50;;;;;;;;;;;;;;;;;;3048683;19;20027;-63
2022/09/08 03:34:50;;;;;;;;;;;;;;;;;;3049436;19;20339;-63
2022/09/08 03:35:51;;;;;;;;;;;;;;;;;;3048757;19;19945;-62
2022/09/08 03:36:51;;;;;;;;;;;;;;;;;;3048139;19;19990;-62
2022/09/08 03:37:51;;;;;;;;;;;;;;;;;;3047187;19;19931;-63
2022/09/08 03:38:51;;;;;;;;;;;;;;;;;;3048547;19;20628;-63
2022/09/08 03:39:51;;;;;;;;;;;;;;;;;;3049868;19;19925;-63
2022/09/08 03:40:52;;;;;;;;;;;;;;;;;;3048219;19;19919;-63
2022/09/08 03:41:52;;;;;;;;;;;;;;;;;;3049204;19;19919;-63
2022/09/08 03:42:52;;;;;;;;;;;;;;;;;;3048214;19;19921;-62
2022/09/08 03:43:52;;;;;;;;;;;;;;;;;;3047666;19;19923;-62
2022/09/08 03:44:52;;;;;;;;;;;;;;;;;;3048747;19;19919;-62
2022/09/08 03:45:52;;;;;;;;;;;;;;;;;;3047551;19;19946;-63
2022/09/08 03:46:52;;;;;;;;;;;;;;;;;;3047124;19;19927;-62
2022/09/08 03:47:53;;;;;;;;;;;;;;;;;;3050991;19;19919;-62
2022/09/08 03:48:53;;;;;;;;;;;;;;;;;;3048432;19;20331;-63
2022/09/08 03:49:53;;;;;;;;;;;;;;;;;;3048498;19;19974;-62
2022/09/08 03:50:53;;;;;;;;;;;;;;;;;;3049461;19;19923;-62
2022/09/08 03:51:53;;;;;;;;;;;;;;;;;;3046097;19;19925;-63
2022/09/08 03:52:53;;;;;;;;;;;;;;;;;;3049852;19;20348;-61
2022/09/08 03:54:46;;;;;;;;;;;;;;;;;;3048216;19;19918;-63
2022/09/08 03:55:14;;;;;;;;;;;;;;;;;;3045286;19;19918;-62
2022/09/08 03:56:14;;;;;;;;;;;;;;;;;;3051407;19;19927;-61
2022/09/08 03:57:15;;;;;;;;;;;;;;;;;;3046482;19;19929;-63
2022/09/08 03:58:15;;;;;;;;;;;;;;;;;;3043020;19;19930;-62
2022/09/08 03:59:15;;;;;;;;;;;;;;;;;;3047180;19;19911;-63
2022/09/08 04:00:15;;;;;;;;;;;;;;;;;;3043224;19;19914;-63
2022/09/08 04:01:15;;;;;;;;;;;;;;;;;;3049728;19;20050;-63
2022/09/08 04:02:16;;;;;;;;;;;;;;;;;;3044523;19;19925;-62
2022/09/08 04:03:17;;;;;;;;;;;;;;;;;;3047213;19;19967;-63
2022/09/08 04:04:17;;;;;;;;;;;;;;;;;;3045813;19;19929;-63
2022/09/08 04:05:18;;;;;;;;;;;;;;;;;;3045806;19;19925;-62
2022/09/08 04:06:19;;;;;;;;;;;;;;;;;;3047238;19;20271;-63
2022/09/08 04:07:20;;;;;;;;;;;;;;;;;;3046512;19;19925;-63
2022/09/08 04:08:21;;;;;;;;;;;;;;;;;;3048337;19;19923;-62
2022/09/08 04:09:21;;;;;;;;;;;;;;;;;;3044445;19;19929;-63
2022/09/08 04:10:21;;;;;;;;;;;;;;;;;;3046014;19;19927;-62
2022/09/08 04:11:21;;;;;;;;;;;;;;;;;;3047769;19;20023;-62
2022/09/08 04:12:22;;;;;;;;;;;;;;;;;;3044759;19;19946;-63
2022/09/08 04:13:22;;;;;;;;;;;;;;;;;;3049483;19;20372;-63
2022/09/08 04:14:23;;;;;;;;;;;;;;;;;;3047839;19;19915;-62
2022/09/08 04:15:23;;;;;;;;;;;;;;;;;;3045345;19;20536;-63
2022/09/08 04:16:23;;;;;;;;;;;;;;;;;;3049598;19;19918;-63
2022/09/08 04:17:23;;;;;;;;;;;;;;;;;;3047635;19;19951;-62
2022/09/08 04:18:24;;;;;;;;;;;;;;;;;;3050306;19;19915;-63
2022/09/08 04:19:24;;;;;;;;;;;;;;;;;;3049498;19;20369;-63
2022/09/08 04:20:24;;;;;;;;;;;;;;;;;;3047635;19;20011;-63
2022/09/08 04:21:24;;;;;;;;;;;;;;;;;;3050297;19;19914;-63
2022/09/08 04:22:24;;;;;;;;;;;;;;;;;;3048379;19;20010;-63
2022/09/08 04:23:24;;;;;;;;;;;;;;;;;;3047796;19;19925;-62
2022/09/08 04:24:24;;;;;;;;;;;;;;;;;;3049907;19;19948;-63
2022/09/08 04:25:25;;;;;;;;;;;;;;;;;;3046674;19;20024;-63
2022/09/08 04:26:25;;;;;;;;;;;;;;;;;;3048395;19;19986;-63
2022/09/08 04:27:25;;;;;;;;;;;;;;;;;;3048248;19;20022;-63
2022/09/08 04:28:25;;;;;;;;;;;;;;;;;;3045517;19;19945;-62
2022/09/08 04:29:26;;;;;;;;;;;;;;;;;;3050024;19;19932;-62
2022/09/08 04:30:26;;;;;;;;;;;;;;;;;;3049124;19;19953;-62
2022/09/08 04:31:26;;;;;;;;;;;;;;;;;;3046273;19;19918;-62
2022/09/08 04:32:26;;;;;;;;;;;;;;;;;;3047346;19;19944;-63
2022/09/08 04:33:27;;;;;;;;;;;;;;;;;;3045222;19;20513;-63
2022/09/08 04:34:27;;;;;;;;;;;;;;;;;;3047236;19;19942;-63
2022/09/08 04:35:27;;;;;;;;;;;;;;;;;;3049099;19;19918;-62
2022/09/08 04:36:27;;;;;;;;;;;;;;;;;;3046251;19;19918;-62
2022/09/08 04:37:27;;;;;;;;;;;;;;;;;;3049590;19;19919;-63
2022/09/08 04:38:28;;;;;;;;;;;;;;;;;;3048851;19;20014;-62
2022/09/08 04:39:28;;;;;;;;;;;;;;;;;;3047188;19;19915;-62
2022/09/08 04:40:28;;;;;;;;;;;;;;;;;;3048846;19;19958;-62
2022/09/08 04:41:28;;;;;;;;;;;;;;;;;;3046377;19;20326;-62
2022/09/08 04:42:28;;;;;;;;;;;;;;;;;;3049581;19;19914;-61
2022/09/08 04:43:28;;;;;;;;;;;;;;;;;;3048828;19;19926;-63
2022/09/08 04:44:28;;;;;;;;;;;;;;;;;;3046270;19;20504;-63
2022/09/08 04:45:28;;;;;;;;;;;;;;;;;;3050124;19;20014;-62
2022/09/08 04:46:29;;;;;;;;;;;;;;;;;;3047957;19;19927;-63
2022/09/08 04:47:29;;;;;;;;;;;;;;;;;;3047712;19;19911;-63
2022/09/08 04:48:30;;;;;;;;;;;;;;;;;;3048748;19;19918;-62
2022/09/08 04:49:30;;;;;;;;;;;;;;;;;;3047841;19;20533;-63
2022/09/08 04:50:30;;;;;;;;;;;;;;;;;;3048518;19;19918;-62
2022/09/08 04:51:32;;;;;;;;;;;;;;;;;;3048155;19;19935;-63
2022/09/08 04:52:32;;;;;;;;;;;;;;;;;;3046074;19;19934;-62
2022/09/08 04:53:32;;;;;;;;;;;;;;;;;;3049904;19;19919;-62
2022/09/08 04:54:32;;;;;;;;;;;;;;;;;;3045034;19;19978;-62
2022/09/08 04:55:32;;;;;;;;;;;;;;;;;;3046990;19;19938;-63
2022/09/08 04:56:33;;;;;;;;;;;;;;;;;;3049832;19;19945;-63
2022/09/08 04:57:33;;;;;;;;;;;;;;;;;;3044178;19;19919;-62
2022/09/08 04:58:33;;;;;;;;;;;;;;;;;;3048763;19;19935;-63
2022/09/08 04:59:33;;;;;;;;;;;;;;;;;;3047812;19;19956;-62
2022/09/08 05:00:33;;;;;;;;;;;;;;;;;;3046499;19;19919;-62
2022/09/08 05:01:35;;;;;;;;;;;;;;;;;;3047630;19;19926;-62
2022/09/08 05:02:35;;;;;;;;;;;;;;;;;;3045298;19;19998;-63
2022/09/08 05:03:36;;;;;;;;;;;;;;;;;;3047476;19;19923;-62
2022/09/08 05:04:37;;;;;;;;;;;;;;;;;;3047314;19;19956;-63
2022/09/08 05:05:37;;;;;;;;;;;;;;;;;;3046301;19;20520;-62
2022/09/08 05:06:37;;;;;;;;;;;;;;;;;;3048975;19;19930;-63
2022/09/08 05:07:38;;;;;;;;;;;;;;;;;;3046739;19;19937;-63
2022/09/08 05:08:38;;;;;;;;;;;;;;;;;;3047576;19;19922;-62
2022/09/08 05:09:38;;;;;;;;;;;;;;;;;;3045255;19;19954;-62
2022/09/08 05:10:38;;;;;;;;;;;;;;;;;;3046982;19;19943;-62
2022/09/08 05:11:39;;;;;;;;;;;;;;;;;;3048866;19;19945;-62
2022/09/08 05:12:39;;;;;;;;;;;;;;;;;;3044370;19;20721;-61
2022/09/08 05:13:39;;;;;;;;;;;;;;;;;;3049457;19;19938;-61
2022/09/08 05:14:39;;;;;;;;;;;;;;;;;;3047418;19;19919;-62
2022/09/08 05:15:39;;;;;;;;;;;;;;;;;;3045674;19;20583;-62
2022/09/08 05:16:40;;;;;;;;;;;;;;;;;;3049131;19;20365;-61
2022/09/08 05:17:40;;;;;;;;;;;;;;;;;;3045499;19;20343;-61
2022/09/08 05:18:40;;;;;;;;;;;;;;;;;;3040390;19;20354;-61
2022/09/08 05:19:40;;;;;;;;;;;;;;;;;;3047740;19;20377;-61
2022/09/08 05:20:40;;;;;;;;;;;;;;;;;;3045038;19;19922;-60
2022/09/08 05:21:40;;;;;;;;;;;;;;;;;;3048124;19;20515;-61
2022/09/08 05:22:40;;;;;;;;;;;;;;;;;;3046351;19;20512;-61
2022/09/08 05:23:40;;;;;;;;;;;;;;;;;;3045858;19;19922;-61
2022/09/08 05:24:41;;;;;;;;;;;;;;;;;;3048276;19;19927;-61
2022/09/08 05:25:41;;;;;;;;;;;;;;;;;;3045313;19;19931;-61
2022/09/08 05:26:41;;;;;;;;;;;;;;;;;;3048028;19;20431;-61
2022/09/08 05:27:41;;;;;;;;;;;;;;;;;;3045922;19;20300;-61
2022/09/08 05:28:41;;;;;;;;;;;;;;;;;;3044682;19;19949;-60
2022/09/08 05:29:42;;;;;;;;;;;;;;;;;;3047832;19;20006;-59
2022/09/08 05:30:42;;;;;;;;;;;;;;;;;;3043208;19;19919;-60
2022/09/08 05:31:42;;;;;;;;;;;;;;;;;;3044712;19;19923;-60
2022/09/08 05:32:42;;;;;;;;;;;;;;;;;;3047788;19;20342;-60
2022/09/08 05:33:42;;;;;;;;;;;;;;;;;;3045829;19;19926;-60
2022/09/08 05:34:43;;;;;;;;;;;;;;;;;;3048590;19;20007;-60
2022/09/08 05:35:43;;;;;;;;;;;;;;;;;;3045499;19;19918;-61
2022/09/08 05:36:43;;;;;;;;;;;;;;;;;;3045012;19;19923;-61
2022/09/08 05:37:43;;;;;;;;;;;;;;;;;;3047784;19;20466;-60
2022/09/08 05:38:44;;;;;;;;;;;;;;;;;;3047447;19;19936;-60
2022/09/08 05:39:46;;;;;;;;;;;;;;;;;;3044028;19;19923;-60
2022/09/08 05:40:46;;;;;;;;;;;;;;;;;;3047262;19;19918;-59
2022/09/08 05:41:47;;;;;;;;;;;;;;;;;;3049579;19;20288;-57
2022/09/08 05:42:47;;;;;;;;;;;;;;;;;;3051310;19;19946;-59
2022/09/08 05:43:47;;;;;;;;;;;;;;;;;;3049934;19;19919;-59
2022/09/08 05:44:47;;;;;;;;;;;;;;;;;;3051962;19;19942;-60
2022/09/08 05:45:47;;;;;;;;;;;;;;;;;;3050092;19;19929;-57
2022/09/08 05:46:47;;;;;;;;;;;;;;;;;;3052579;19;19930;-59
2022/09/08 05:47:47;;;;;;;;;;;;;;;;;;3051059;19;20010;-59
2022/09/08 05:48:48;;;;;;;;;;;;;;;;;;3049630;19;19919;-60
2022/09/08 05:49:48;;;;;;;;;;;;;;;;;;3048930;19;19922;-59
2022/09/08 05:50:48;;;;;;;;;;;;;;;;;;3049274;19;19919;-59
2022/09/08 05:51:52;;;;;;;;;;;;;;;;;;3049552;19;19923;-59
2022/09/08 05:52:52;;;;;;;;;;;;;;;;;;3050522;19;19915;-60
2022/09/08 05:53:53;;;;;;;;;;;;;;;;;;3049674;19;19925;-59
2022/09/08 05:54:54;;;;;;;;;;;;;;;;;;3051448;19;20328;-60
2022/09/08 05:55:55;;;;;;;;;;;;;;;;;;3050104;19;19919;-61
2022/09/08 05:56:55;;;;;;;;;;;;;;;;;;3047624;19;19914;-60
2022/09/08 05:57:55;;;;;;;;;;;;;;;;;;3052728;19;19931;-61
2022/09/08 05:58:55;;;;;;;;;;;;;;;;;;3049076;19;20063;-60
2022/09/08 05:59:56;;;;;;;;;;;;;;;;;;3049621;19;19970;-60
2022/09/08 06:00:56;;;;;;;;;;;;;;;;;;3051067;19;20753;-61
2022/09/08 06:01:56;;;;;;;;;;;;;;;;;;3047359;19;19942;-61
2022/09/08 06:02:56;;;;;;;;;;;;;;;;;;3050821;19;20308;-61
2022/09/08 06:03:58;;;;;;;;;;;;;;;;;;3049366;19;19931;-60
2022/09/08 06:04:58;;;;;;;;;;;;;;;;;;3050829;19;20462;-61
2022/09/08 06:05:59;;;;;;;;;;;;;;;;;;3047236;19;20712;-61
2022/09/08 06:06:59;;;;;;;;;;;;;;;;;;3051240;19;19922;-62
2022/09/08 06:07:59;;;;;;;;;;;;;;;;;;3050216;19;19927;-60
2022/09/08 06:08:59;;;;;;;;;;;;;;;;;;3050324;19;20718;-61
2022/09/08 06:09:59;;;;;;;;;;;;;;;;;;3052413;19;19939;-61
2022/09/08 06:10:59;;;;;;;;;;;;;;;;;;3051374;19;19915;-61
2022/09/08 06:11:59;;;;;;;;;;;;;;;;;;3048471;19;20311;-61
2022/09/08 06:13:00;;;;;;;;;;;;;;;;;;3052013;19;19927;-61
2022/09/08 06:14:00;;;;;;;;;;;;;;;;;;3048353;19;20324;-61
2022/09/08 06:15:00;;;;;;;;;;;;;;;;;;3051025;19;19929;-60
2022/09/08 06:16:00;;;;;;;;;;;;;;;;;;3047399;19;19946;-61
2022/09/08 06:17:01;;;;;;;;;;;;;;;;;;3050990;19;20316;-59
2022/09/08 06:18:01;;;;;;;;;;;;;;;;;;3051553;19;19910;-61
2022/09/08 06:19:01;;;;;;;;;;;;;;;;;;3049366;19;19925;-60
2022/09/08 06:20:01;;;;;;;;;;;;;;;;;;3052479;19;19919;-61
2022/09/08 06:21:01;;;;;;;;;;;;;;;;;;3049196;19;19958;-61
2022/09/08 06:22:01;;;;;;;;;;;;;;;;;;3046239;19;19922;-60
2022/09/08 06:23:02;;;;;;;;;;;;;;;;;;3049845;19;19955;-61
2022/09/08 06:24:02;;;;;;;;;;;;;;;;;;3047912;19;20478;-61
2022/09/08 06:25:03;;;;;;;;;;;;;;;;;;3051044;19;19925;-61
2022/09/08 06:26:03;;;;;;;;;;;;;;;;;;3048573;19;19911;-61
2022/09/08 06:27:03;;;;;;;;;;;;;;;;;;3047749;19;19915;-60
2022/09/08 06:28:03;;;;;;;;;;;;;;;;;;3052006;19;20516;-61
2022/09/08 06:29:04;;;;;;;;;;;;;;;;;;3048860;19;19926;-61
2022/09/08 06:30:04;;;;;;;;;;;;;;;;;;3050260;19;19919;-62
2022/09/08 06:31:04;;;;;;;;;;;;;;;;;;3050705;19;20358;-61
2022/09/08 06:32:04;;;;;;;;;;;;;;;;;;3049224;19;19919;-60
2022/09/08 06:33:04;;;;;;;;;;;;;;;;;;3051148;19;19919;-61
2022/09/08 06:34:05;;;;;;;;;;;;;;;;;;3049299;19;20348;-60
2022/09/08 06:35:05;;;;;;;;;;;;;;;;;;3049861;19;19934;-60
2022/09/08 06:36:05;;;;;;;;;;;;;;;;;;3051078;19;19926;-61
2022/09/08 06:37:05;;;;;;;;;;;;;;;;;;3049161;19;19942;-60
2022/09/08 06:38:05;;;;;;;;;;;;;;;;;;3050447;19;19929;-60
2022/09/08 06:39:05;;;;;;;;;;;;;;;;;;3051907;19;20431;-60
2022/09/08 06:40:06;;;;;;;;;;;;;;;;;;3048791;19;19914;-60
2022/09/08 06:41:06;;;;;;;;;;;;;;;;;;3050611;19;19946;-61
2022/09/08 06:42:06;;;;;;;;;;;;;;;;;;3051110;19;21126;-61
2022/09/08 06:43:06;;;;;;;;;;;;;;;;;;3048006;19;20007;-60
2022/09/08 06:44:07;;;;;;;;;;;;;;;;;;3049605;19;19950;-60
2022/09/08 06:45:07;;;;;;;;;;;;;;;;;;3047886;19;19918;-60
2022/09/08 06:46:07;;;;;;;;;;;;;;;;;;3049618;19;20368;-61
2022/09/08 06:47:07;;;;;;;;;;;;;;;;;;3050515;19;19919;-61
2022/09/08 06:48:08;;;;;;;;;;;;;;;;;;3047686;19;19923;-60
2022/09/08 06:49:09;;;;;;;;;;;;;;;;;;3049573;19;19923;-61
2022/09/08 06:50:09;;;;;;;;;;;;;;;;;;3051315;19;19923;-61
2022/09/08 06:51:09;;;;;;;;;;;;;;;;;;3049564;19;19918;-61
2022/09/08 06:52:09;;;;;;;;;;;;;;;;;;3049863;19;20485;-60
2022/09/08 06:53:09;;;;;;;;;;;;;;;;;;3049815;19;19937;-57
2022/09/08 06:54:10;;;;;;;;;;;;;;;;;;3049666;19;20840;-62
2022/09/08 06:55:10;;;;;;;;;;;;;;;;;;3049919;19;19926;-60
2022/09/08 06:56:10;;;;;;;;;;;;;;;;;;3049277;19;21227;-61
2022/09/08 06:57:11;;;;;;;;;;;;;;;;;;3049975;19;19919;-61
2022/09/08 06:58:12;;;;;;;;;;;;;;;;;;3050016;19;20651;-61